KDCA

Ronald Reagan Washington National Airport

Washington, Virginia, USA
KDCA 221447Z 2215/2318 33006KT P6SM FEW250 FM222000 16008KT P6SM SCT200 FM230500 18009KT P6SM FEW060 BKN150 FM231300 19010KT P6SM BKN030
Issued Valid From Valid To
Jan-22 @ 14:47 UTC
(2 hours ago)
Jan-22 @ 15:00 UTC
(2 hours ago)
Jan-23 @ 18:00 UTC
(-1 days ago)
Jan-22 @ 15:00 to Jan-22 @ 20:00
KDCA 221447Z 2215/2318 33006KT P6SM FEW250
Wind Visibility Clouds
330° at 6 knots Greater than 6 miles
  • Few at 25,000' AGL
From Jan-22 @ 20:00 to Jan-23 @ 05:00
FM222000 16008KT P6SM SCT200
Wind Visibility Clouds
160° at 8 knots Greater than 6 miles
  • Scattered at 20,000' AGL
From Jan-23 @ 05:00 to Jan-23 @ 13:00
FM230500 18009KT P6SM FEW060 BKN150
Wind Visibility Clouds
180° at 9 knots Greater than 6 miles
  • Few at 6,000' AGL
  • Broken at 15,000' AGL
From Jan-23 @ 13:00 to Jan-23 @ 18:00
FM231300 19010KT P6SM BKN030
Wind Visibility Clouds
190° at 10 knots Greater than 6 miles
  • Broken at 3,000' AGL
KDCA 221447Z 2215/2318 33006KT P6SM FEW250 FM222000 16008KT P6SM SCT200 FM230500 18009KT P6SM FEW060 BKN150 FM231300 19010KT P6SM BKN030
Issued Jan-22 @ 14:47 UTC
(2 hours ago)
Valid From Jan-22 @ 15:00 UTC
(2 hours ago)
Valid To Jan-23 @ 18:00 UTC
(-1 days ago)
Jan-22 @ 15:00 - Jan-22 @ 20:00
Wind Visibility
330° at 6 knots Greater than 6 miles
Clouds
  • Few at 25,000' AGL
From Jan-22 @ 20:00 - Jan-23 @ 05:00
Wind Visibility
160° at 8 knots Greater than 6 miles
Clouds
  • Scattered at 20,000' AGL
From Jan-23 @ 05:00 - Jan-23 @ 13:00
Wind Visibility
180° at 9 knots Greater than 6 miles
Clouds
  • Few at 6,000' AGL
  • Broken at 15,000' AGL
From Jan-23 @ 13:00 - Jan-23 @ 18:00
Wind Visibility
190° at 10 knots Greater than 6 miles
Clouds
  • Broken at 3,000' AGL